Terminal Aerodrome Forecast
Issued by NWS Lubbock, TX

Home | Current Version | Previous Version | Text Only | Print | Product List | Glossary On
Versions: 1 2 3 4 5 6 7 8 9 10 11 12 13 14 15 16 17 18 19 20 21 22
000
FTUS44 KLUB 050520
TAFLBB
TAF
KLBB 050520Z 0506/0606 14015G20KT 3SM -TSRA SCT010 BKN020CB
     FM050900 15015KT 6SM BR SCT010
     FM052200 16015KT 6SM -TSRA BKN035CB=

USA.gov is the U.S. government's official web portal to all federal, state and local government web resources and services.